Time;durP1;ratioP1;P1;durP2;ratioP2;P2;SDS_P1;SDS_P2;PMS_P1;PMS_P2;Temp;Humidity;BMP_temperature;BMP_pressure;BME280_temperature;BME280_humidity;BME280_pressure;Samples;Min_cycle;Max_cycle;Signal;HPM_P1;HPM_P2
2022/07/02 00:00:55;;;;;;;0.20;0.20;;;;;;;18.44;76.78;96154.63;4301181;32;20327;-48
2022/07/02 00:03:31;;;;;;;0.53;0.53;;;;;;;18.42;77.16;96162.22;4294078;32;20311;-52
2022/07/02 00:06:01;;;;;;;0.37;0.37;;;;;;;18.43;77.34;96155.72;4356405;32;20199;-53
2022/07/02 00:08:28;;;;;;;0.53;0.53;;;;;;;18.37;76.84;96146.25;4334912;32;20189;-52
2022/07/02 00:11:03;;;;;;;0.33;0.33;;;;;;;18.32;77.27;96151.81;4340304;32;20297;-52
2022/07/02 00:13:32;;;;;;;0.40;0.40;;;;;;;18.44;77.30;96148.44;4320787;32;20193;-49
2022/07/02 00:16:02;;;;;;;0.40;0.40;;;;;;;18.36;77.37;96147.38;4338615;32;20184;-50
2022/07/02 00:18:31;;;;;;;0.00;0.00;;;;;;;18.43;77.22;96153.03;4347809;32;20205;-48
2022/07/02 00:21:07;;;;;;;0.47;0.47;;;;;;;18.44;77.28;96143.87;4324685;32;20193;-49
2022/07/02 00:23:33;;;;;;;0.10;0.10;;;;;;;18.47;77.16;96148.59;4335732;32;20194;-50
2022/07/02 00:26:36;;;;;;;0.43;0.43;;;;;;;18.38;77.35;96150.53;4335279;32;20259;-51
2022/07/02 00:29:24;;;;;;;0.50;0.50;;;;;;;18.49;77.51;96159.81;4337378;32;20263;-53
2022/07/02 00:31:50;;;;;;;0.23;0.23;;;;;;;18.42;77.34;96154.16;4329972;32;20216;-50
2022/07/02 00:34:18;;;;;;;0.53;0.53;;;;;;;18.42;77.10;96145.31;4309642;32;20193;-47
2022/07/02 00:36:44;;;;;;;0.63;0.63;;;;;;;18.43;77.20;96147.66;4328625;32;20259;-50
2022/07/02 00:39:11;;;;;;;0.50;0.50;;;;;;;18.40;77.13;96148.31;4332451;32;20243;-52
2022/07/02 00:41:39;;;;;;;0.50;0.50;;;;;;;18.46;77.03;96152.41;4336326;32;20239;-50
2022/07/02 00:44:07;;;;;;;0.20;0.20;;;;;;;18.40;76.68;96148.31;4344229;32;20212;-49
2022/07/02 00:46:36;;;;;;;0.50;0.50;;;;;;;18.44;76.89;96151.13;4325092;32;20226;-49
2022/07/02 00:49:03;;;;;;;0.40;0.40;;;;;;;18.45;77.05;96145.44;4297959;32;20260;-51
2022/07/02 00:51:29;;;;;;;0.60;0.60;;;;;;;18.41;76.89;96151.78;4329850;32;20212;-52
2022/07/02 00:54:18;;;;;;;0.20;0.20;;;;;;;18.46;76.90;96152.41;4339223;32;20189;-51
2022/07/02 00:56:48;;;;;;;0.47;0.47;;;;;;;18.44;76.62;96154.63;4331068;32;20261;-50
2022/07/02 00:59:14;;;;;;;1.23;0.43;;;;;;;18.29;76.89;96149.00;4323589;32;20185;-50
2022/07/02 01:01:40;;;;;;;0.60;0.60;;;;;;;18.37;77.11;96143.56;4306601;32;20256;-53
2022/07/02 01:04:15;;;;;;;0.20;0.20;;;;;;;18.36;76.56;96152.75;4336500;32;20197;-50
2022/07/02 01:06:42;;;;;;;0.33;0.33;;;;;;;18.22;76.95;96146.78;4315559;32;20236;-50
2022/07/02 01:12:11;;;;;;;0.57;0.57;;;;;;;18.27;76.72;96149.31;4347693;32;20211;-49
2022/07/02 01:14:38;;;;;;;1.07;0.77;;;;;;;18.19;76.75;96140.16;4328611;32;20190;-52
2022/07/02 01:17:05;;;;;;;0.30;0.30;;;;;;;18.16;77.04;96145.37;4327585;32;20239;-48
2022/07/02 01:19:34;;;;;;;0.40;0.40;;;;;;;18.19;77.26;96139.38;4334396;32;20197;-49
2022/07/02 01:22:24;;;;;;;0.37;0.37;;;;;;;18.15;77.36;96136.53;4328983;32;20232;-52
2022/07/02 01:25:12;;;;;;;0.60;0.60;;;;;;;18.21;77.01;96137.16;4321239;32;20296;-50
2022/07/02 01:27:38;;;;;;;0.50;0.50;;;;;;;18.23;77.04;96131.47;4320931;32;20189;-50
2022/07/02 01:30:06;;;;;;;0.60;0.60;;;;;;;18.22;76.81;96141.44;4303877;32;20241;-50
2022/07/02 01:32:31;;;;;;;0.43;0.43;;;;;;;18.21;76.69;96129.09;4277095;33;20236;-49
2022/07/02 01:35:08;;;;;;;0.37;0.37;;;;;;;18.02;76.70;96123.31;4330413;32;20246;-51
2022/07/02 01:37:40;;;;;;;0.40;0.40;;;;;;;18.11;77.03;96126.75;4313925;32;20196;-51
2022/07/02 01:40:19;;;;;;;0.23;0.23;;;;;;;18.12;76.85;96117.59;4302245;32;20264;-49
2022/07/02 01:42:46;;;;;;;0.50;0.50;;;;;;;18.17;76.95;96123.59;4318300;32;20257;-49
2022/07/02 01:45:13;;;;;;;0.30;0.30;;;;;;;18.21;76.70;96123.72;4304777;32;20211;-49
2022/07/02 01:47:40;;;;;;;0.37;0.37;;;;;;;18.09;76.40;96119.00;4340014;32;20177;-52
2022/07/02 01:50:07;;;;;;;0.63;0.63;;;;;;;18.05;77.00;96130.75;4331899;32;20207;-49
2022/07/02 01:52:34;;;;;;;0.80;0.60;;;;;;;18.03;76.86;96123.00;4354277;32;20283;-48
2022/07/02 01:55:03;;;;;;;0.27;0.27;;;;;;;17.89;77.15;96126.97;4327848;32;20188;-50
2022/07/02 01:57:30;;;;;;;0.47;0.47;;;;;;;17.90;77.12;96112.44;4336029;32;20207;-56
2022/07/02 01:59:57;;;;;;;0.57;0.57;;;;;;;17.99;77.08;96110.53;4297652;32;20277;-50
2022/07/02 02:02:23;;;;;;;0.20;0.20;;;;;;;17.95;76.38;96114.97;4332263;32;20205;-51
2022/07/02 02:04:50;;;;;;;0.57;0.40;;;;;;;18.01;76.89;96122.53;4314149;32;20304;-51
2022/07/02 02:07:17;;;;;;;0.67;0.67;;;;;;;17.87;77.07;96118.47;4337824;32;20244;-51
2022/07/02 02:09:43;;;;;;;0.53;0.53;;;;;;;17.91;76.89;96120.19;4335559;32;20181;-53
2022/07/02 02:12:10;;;;;;;1.00;1.00;;;;;;;17.73;76.88;96124.00;4345416;32;20295;-51
2022/07/02 02:14:39;;;;;;;0.57;0.57;;;;;;;17.67;76.84;96123.38;4296469;32;20253;-50
2022/07/02 02:17:12;;;;;;;0.53;0.53;;;;;;;17.68;77.67;96122.28;4320570;32;20197;-52
2022/07/02 02:19:37;;;;;;;0.50;0.50;;;;;;;17.78;77.41;96123.84;4310886;32;20190;-49
2022/07/02 02:22:04;;;;;;;0.50;0.50;;;;;;;17.80;77.13;96125.12;4333023;32;20235;-50
2022/07/02 02:24:31;;;;;;;0.57;0.57;;;;;;;17.91;76.86;96130.13;4292112;32;20190;-47
2022/07/02 02:27:00;;;;;;;0.67;0.67;;;;;;;17.79;76.60;96120.84;4331676;32;20203;-49
2022/07/02 02:29:26;;;;;;;0.50;0.50;;;;;;;17.75;76.33;96125.28;4345922;32;20193;-50
2022/07/02 02:31:52;;;;;;;0.77;0.43;;;;;;;17.81;76.57;96125.91;4307154;32;20213;-49
2022/07/02 02:34:21;;;;;;;0.40;0.40;;;;;;;17.92;76.28;96127.13;4313120;32;20258;-48
2022/07/02 02:36:50;;;;;;;0.30;0.30;;;;;;;17.82;75.79;96133.62;4321157;32;20193;-50
2022/07/02 02:39:26;;;;;;;0.87;0.87;;;;;;;17.68;75.42;96133.00;4336174;32;20265;-51
2022/07/02 02:41:54;;;;;;;0.47;0.43;;;;;;;17.80;76.45;96138.53;4300306;32;20278;-52
2022/07/02 02:44:21;;;;;;;0.20;0.20;;;;;;;17.76;75.54;96134.13;4347624;32;20196;-48
2022/07/02 02:46:48;;;;;;;0.53;0.53;;;;;;;17.72;75.86;96139.31;4329382;32;20186;-52
2022/07/02 02:49:14;;;;;;;0.20;0.20;;;;;;;17.63;75.36;96141.22;4323419;32;20189;-49
2022/07/02 02:51:41;;;;;;;0.20;0.20;;;;;;;17.69;75.82;96139.97;4312555;32;20197;-47
2022/07/02 02:54:06;;;;;;;0.67;0.63;;;;;;;17.72;75.68;96143.91;4334106;32;20197;-48
2022/07/02 02:56:33;;;;;;;0.70;0.70;;;;;;;17.66;75.40;96146.00;4323906;32;20248;-52
2022/07/02 02:58:58;;;;;;;0.30;0.30;;;;;;;17.71;75.47;96142.31;4330591;32;20198;-50
2022/07/02 03:01:27;;;;;;;0.30;0.30;;;;;;;17.53;75.14;96154.94;4337213;32;20227;-50
2022/07/02 03:04:00;;;;;;;0.10;0.10;;;;;;;17.52;75.01;96145.31;4317301;32;20188;-46
2022/07/02 03:06:26;;;;;;;0.30;0.30;;;;;;;17.64;75.70;96150.88;4279805;33;20198;-49
2022/07/02 03:08:53;;;;;;;0.40;0.40;;;;;;;17.57;74.95;96144.37;4310286;32;20208;-52
2022/07/02 03:11:22;;;;;;;0.40;0.40;;;;;;;17.38;74.77;96145.50;4313281;32;20193;-50
2022/07/02 03:13:52;;;;;;;0.43;0.43;;;;;;;17.40;75.37;96147.88;4280831;33;20204;-50
2022/07/02 03:16:19;;;;;;;0.53;0.30;;;;;;;17.48;75.48;96150.53;4283369;33;20253;-48
2022/07/02 03:18:45;;;;;;;0.30;0.30;;;;;;;17.48;74.94;96150.53;4318879;33;20186;-51
2022/07/02 03:21:11;;;;;;;0.10;0.10;;;;;;;17.43;74.64;96155.28;4329023;32;20262;-51
2022/07/02 03:23:38;;;;;;;0.43;0.43;;;;;;;17.52;75.08;96153.38;4332887;32;20200;-52
2022/07/02 03:26:07;;;;;;;0.27;0.27;;;;;;;17.60;74.93;96160.63;4331668;32;20193;-51
2022/07/02 03:28:33;;;;;;;0.30;0.30;;;;;;;17.66;74.61;96166.66;4312112;32;20189;-48
2022/07/02 03:30:59;;;;;;;0.27;0.27;;;;;;;17.67;74.91;96168.22;4352087;32;20247;-53
2022/07/02 03:33:25;;;;;;;0.30;0.30;;;;;;;17.60;74.32;96166.00;4365191;32;20206;-50
2022/07/02 03:35:55;;;;;;;0.27;0.27;;;;;;;17.55;74.55;96170.72;4352792;32;20276;-52
2022/07/02 03:38:23;;;;;;;0.10;0.10;;;;;;;17.57;74.13;96158.59;4333557;32;20211;-53
2022/07/02 03:40:48;;;;;;;0.30;0.30;;;;;;;17.57;74.62;96171.22;4341705;32;20279;-52
2022/07/02 03:43:15;;;;;;;0.13;0.13;;;;;;;17.58;73.99;96164.75;4351226;32;20200;-51
2022/07/02 03:45:41;;;;;;;0.10;0.10;;;;;;;17.52;74.05;96172.94;4338246;32;20220;-50
2022/07/02 03:48:08;;;;;;;0.13;0.13;;;;;;;17.47;74.44;96162.38;4347829;32;20204;-53
2022/07/02 03:50:38;;;;;;;0.20;0.20;;;;;;;17.53;74.17;96169.16;4333750;32;20211;-54
2022/07/02 03:53:06;;;;;;;0.20;0.20;;;;;;;17.66;74.23;96177.41;4343418;32;20275;-48
2022/07/02 03:55:32;;;;;;;0.13;0.13;;;;;;;17.70;74.05;96179.12;4321350;32;20250;-52
2022/07/02 03:57:59;;;;;;;0.30;0.30;;;;;;;17.71;73.77;96178.00;4322883;32;20196;-50
2022/07/02 04:00:25;;;;;;;0.10;0.10;;;;;;;17.69;73.70;96171.38;4347807;32;20216;-51
2022/07/02 04:02:52;;;;;;;0.30;0.30;;;;;;;17.63;73.45;96178.78;4339692;32;20201;-52
2022/07/02 04:05:19;;;;;;;0.20;0.20;;;;;;;17.65;74.04;96175.81;4342877;32;20247;-48
2022/07/02 04:07:49;;;;;;;0.10;0.10;;;;;;;17.60;73.78;96173.25;4324857;32;20302;-48
2022/07/02 04:10:15;;;;;;;0.73;0.30;;;;;;;17.63;73.89;96173.44;4334831;32;20213;-49
2022/07/02 04:12:41;;;;;;;0.30;0.30;;;;;;;17.66;73.67;96175.50;4321477;32;20251;-50
2022/07/02 04:15:08;;;;;;;0.20;0.20;;;;;;;17.59;73.76;96183.22;4318559;32;20208;-49
2022/07/02 04:17:43;;;;;;;0.20;0.20;;;;;;;17.60;73.64;96179.41;4300406;32;20181;-51
2022/07/02 04:20:10;;;;;;;0.30;0.30;;;;;;;17.59;73.62;96171.69;4313387;32;20188;-48
2022/07/02 04:22:36;;;;;;;0.37;0.37;;;;;;;17.66;73.94;96172.81;4335358;32;20216;-51
2022/07/02 04:25:02;;;;;;;0.13;0.13;;;;;;;17.55;73.86;96176.88;4320863;32;20198;-51
2022/07/02 04:27:28;;;;;;;0.40;0.40;;;;;;;17.59;74.27;96177.84;4369643;32;20229;-51
2022/07/02 04:29:55;;;;;;;0.43;0.43;;;;;;;17.59;74.05;96167.09;4358402;32;20259;-50
2022/07/02 04:32:24;;;;;;;0.33;0.33;;;;;;;17.51;74.32;96174.03;4316914;32;20212;-47
2022/07/02 04:34:50;;;;;;;0.20;0.20;;;;;;;17.41;74.18;96184.31;4294384;32;20330;-52
2022/07/02 04:37:15;;;;;;;0.27;0.27;;;;;;;17.31;75.19;96171.19;4343249;32;20192;-51
2022/07/02 04:39:42;;;;;;;0.30;0.30;;;;;;;17.46;75.21;96171.50;4336077;32;20277;-54
2022/07/02 04:42:11;;;;;;;0.20;0.20;;;;;;;17.51;74.84;96176.72;4323075;32;20216;-52
2022/07/02 04:44:36;;;;;;;0.43;0.43;;;;;;;17.56;74.60;96173.09;4320426;32;20204;-52
2022/07/02 04:47:03;;;;;;;0.20;0.20;;;;;;;17.63;74.49;96181.47;4335041;32;20244;-51
2022/07/02 04:49:29;;;;;;;0.47;0.47;;;;;;;17.39;74.29;96176.59;4321914;32;20256;-50
2022/07/02 04:51:55;;;;;;;0.30;0.30;;;;;;;17.40;75.22;96170.13;4364635;32;20188;-51
2022/07/02 04:54:28;;;;;;;0.53;0.53;;;;;;;17.39;75.18;96175.78;4297830;32;20204;-48
2022/07/02 04:56:54;;;;;;;0.30;0.30;;;;;;;17.40;74.98;96174.69;4332179;32;20205;-49
2022/07/02 04:59:21;;;;;;;0.30;0.30;;;;;;;17.52;74.70;96172.16;4361940;32;20272;-52
2022/07/02 05:01:48;;;;;;;0.30;0.30;;;;;;;17.57;74.61;96163.94;4346557;32;20234;-47
2022/07/02 05:04:14;;;;;;;0.50;0.50;;;;;;;17.54;74.44;96178.00;4344418;32;20216;-51
2022/07/02 05:06:40;;;;;;;0.13;0.13;;;;;;;17.48;74.63;96177.34;4327405;32;20193;-49
2022/07/02 05:09:07;;;;;;;0.20;0.20;;;;;;;17.36;74.90;96181.78;4315596;32;20201;-51
2022/07/02 05:11:33;;;;;;;0.70;0.70;;;;;;;17.28;75.08;96185.25;4325702;32;20220;-51
2022/07/02 05:14:00;;;;;;;1.23;0.73;;;;;;;17.32;75.11;96181.63;4310610;32;20200;-52
2022/07/02 05:16:27;;;;;;;0.37;0.37;;;;;;;17.51;75.06;96171.34;4350905;32;20212;-52
2022/07/02 05:18:53;;;;;;;0.03;0.03;;;;;;;17.54;74.67;96183.34;4332960;32;20197;-52
2022/07/02 05:21:20;;;;;;;0.10;0.10;;;;;;;17.44;74.98;96179.12;4327309;32;20260;-50
2022/07/02 05:23:48;;;;;;;0.10;0.10;;;;;;;17.66;74.68;96183.56;4311792;32;20211;-50
2022/07/02 05:26:16;;;;;;;0.27;0.27;;;;;;;17.72;74.47;96186.84;4314059;32;20260;-49
2022/07/02 05:28:42;;;;;;;0.43;0.33;;;;;;;17.74;74.22;96184.63;4316094;32;20349;-50
2022/07/02 05:31:10;;;;;;;0.33;0.33;;;;;;;17.84;73.91;96190.50;4333955;32;20200;-51
2022/07/02 05:33:36;;;;;;;9.77;0.60;;;;;;;17.91;74.22;96183.81;4329234;32;20196;-51
2022/07/02 05:36:07;;;;;;;0.27;0.27;;;;;;;17.95;73.83;96177.50;4327992;32;20240;-50
2022/07/02 05:38:37;;;;;;;0.20;0.20;;;;;;;17.98;73.50;96182.25;4303368;32;20216;-51
2022/07/02 05:41:07;;;;;;;0.60;0.60;;;;;;;17.74;73.64;96181.97;4346118;32;20200;-51
2022/07/02 05:43:34;;;;;;;0.40;0.40;;;;;;;17.81;74.22;96177.69;4338381;32;20193;-48
2022/07/02 05:46:06;;;;;;;0.40;0.40;;;;;;;17.67;74.14;96184.31;4337864;32;20196;-53
2022/07/02 05:48:36;;;;;;;0.40;0.30;;;;;;;17.76;75.29;96183.22;4344284;32;20247;-50
2022/07/02 05:51:08;;;;;;;0.20;0.20;;;;;;;17.84;74.99;96185.13;4346573;32;20251;-54
2022/07/02 05:53:35;;;;;;;3.53;1.00;;;;;;;17.96;74.49;96184.47;4336039;32;20287;-48
2022/07/02 05:56:02;;;;;;;0.40;0.40;;;;;;;18.05;75.28;96179.09;4340398;32;20261;-52
2022/07/02 05:58:28;;;;;;;0.60;0.60;;;;;;;18.18;75.59;96183.47;4283094;33;20198;-51
2022/07/02 06:00:55;;;;;;;0.63;0.60;;;;;;;18.15;74.72;96184.09;4286175;32;20208;-48
2022/07/02 06:03:21;;;;;;;0.67;0.23;;;;;;;18.13;74.17;96187.09;4310091;32;20280;-53
2022/07/02 06:08:39;;;;;;;0.23;0.23;;;;;;;17.98;74.71;96181.47;4294240;32;20262;-48
2022/07/02 06:11:06;;;;;;;0.20;0.13;;;;;;;17.98;76.96;96184.94;4329046;32;20268;-50
2022/07/02 06:13:32;;;;;;;0.10;0.10;;;;;;;18.05;77.06;96184.44;4353383;32;20233;-52
2022/07/02 06:15:58;;;;;;;1.07;0.30;;;;;;;18.13;76.10;96186.31;4346088;32;20209;-53
2022/07/02 06:18:24;;;;;;;0.30;0.30;;;;;;;18.06;76.02;96186.03;4308767;32;20295;-52
2022/07/02 06:20:52;;;;;;;0.23;0.23;;;;;;;18.15;75.59;96190.25;4312784;32;20264;-48
2022/07/02 06:23:25;;;;;;;0.10;0.10;;;;;;;18.16;75.63;96185.69;4358975;32;20207;-51
2022/07/02 06:25:52;;;;;;;0.30;0.30;;;;;;;18.27;75.34;96191.50;4317128;32;20257;-49
2022/07/02 06:28:18;;;;;;;0.20;0.20;;;;;;;18.36;77.51;96198.41;4311110;32;20256;-50
2022/07/02 06:30:43;;;;;;;2.97;0.63;;;;;;;18.50;76.71;96187.44;4321750;32;20198;-50
2022/07/02 06:33:09;;;;;;;0.70;0.70;;;;;;;18.60;75.52;96184.44;4331234;32;20226;-47
2022/07/02 06:35:34;;;;;;;12.40;6.70;;;;;;;17.41;78.69;96190.47;4354835;32;20192;-48
2022/07/02 06:37:59;;;;;;;0.70;0.70;;;;;;;17.08;82.19;96195.47;4335228;32;20213;-49
2022/07/02 06:40:26;;;;;;;2.03;1.93;;;;;;;17.44;81.72;96197.09;4331448;32;20196;-49
2022/07/02 06:42:51;;;;;;;18.63;3.97;;;;;;;16.88;83.07;96182.66;4320171;32;21731;-48
2022/07/02 06:45:19;;;;;;;3.87;2.53;;;;;;;17.48;82.80;96189.97;4351060;32;20262;-49
2022/07/02 06:47:47;;;;;;;8.03;1.77;;;;;;;17.44;81.37;96191.75;4298252;32;20205;-47
2022/07/02 06:50:18;;;;;;;2.23;1.70;;;;;;;17.33;81.49;96191.25;4339204;32;20248;-51
2022/07/02 06:52:45;;;;;;;0.27;0.27;;;;;;;17.79;79.98;96185.28;4351102;32;20193;-48
2022/07/02 06:55:13;;;;;;;0.37;0.30;;;;;;;17.47;79.41;96191.88;4363010;32;20201;-50
2022/07/02 06:57:39;;;;;;;2.63;2.43;;;;;;;17.33;82.38;96185.09;4337432;32;20197;-50
2022/07/02 07:00:06;;;;;;;0.30;0.30;;;;;;;17.72;82.09;96187.63;4311834;32;20264;-51
2022/07/02 07:02:32;;;;;;;0.97;0.60;;;;;;;17.30;81.42;96189.19;4302592;32;20226;-52
2022/07/02 07:04:57;;;;;;;0.67;0.53;;;;;;;17.53;81.89;96184.47;4297174;32;20174;-53
2022/07/02 07:07:28;;;;;;;0.47;0.47;;;;;;;17.84;81.42;96184.34;4361364;32;20203;-56
2022/07/02 07:09:55;;;;;;;0.30;0.30;;;;;;;17.76;81.38;96175.16;4364476;32;20188;-54
2022/07/02 07:12:25;;;;;;;0.13;0.13;;;;;;;18.09;79.67;96180.00;4298749;32;20301;-57
2022/07/02 07:14:52;;;;;;;0.13;0.13;;;;;;;18.05;78.17;96177.19;4348689;32;20216;-58
2022/07/02 07:17:20;;;;;;;0.73;0.50;;;;;;;18.24;77.89;96182.19;4349069;32;20195;-55
2022/07/02 07:19:47;;;;;;;0.00;0.00;;;;;;;18.14;79.40;96183.31;4319123;32;20201;-56
2022/07/02 07:22:13;;;;;;;0.70;0.40;;;;;;;18.41;77.40;96187.50;4343498;32;20248;-55
2022/07/02 07:24:40;;;;;;;0.00;0.00;;;;;;;18.68;75.56;96183.63;4347754;32;20242;-56
2022/07/02 07:27:08;;;;;;;0.10;0.10;;;;;;;18.48;75.24;96181.63;4318960;32;20212;-55
2022/07/02 07:29:35;;;;;;;0.30;0.30;;;;;;;18.38;75.72;96182.75;4350047;32;20244;-51
2022/07/02 07:32:02;;;;;;;0.03;0.03;;;;;;;18.35;76.07;96180.72;4341927;32;20424;-61
2022/07/02 07:34:27;;;;;;;0.30;0.30;;;;;;;18.19;76.27;96177.78;4312808;32;20190;-55
2022/07/02 07:36:55;;;;;;;0.13;0.13;;;;;;;18.13;77.70;96183.63;4329455;32;20292;-57
2022/07/02 07:39:22;;;;;;;0.17;0.17;;;;;;;18.08;78.88;96173.84;4339388;32;20244;-56
2022/07/02 07:41:48;;;;;;;0.07;0.07;;;;;;;18.30;77.45;96175.50;4344596;32;20224;-56
2022/07/02 07:44:15;;;;;;;2.07;0.57;;;;;;;18.16;78.66;96174.94;4329483;32;20185;-56
2022/07/02 07:46:42;;;;;;;0.00;0.00;;;;;;;18.16;78.88;96173.03;4305167;32;20208;-57
2022/07/02 07:49:11;;;;;;;0.10;0.10;;;;;;;18.20;77.72;96165.13;4314240;32;20203;-57
2022/07/02 07:51:37;;;;;;;0.00;0.00;;;;;;;18.09;79.69;96174.63;4315232;32;20203;-53
2022/07/02 07:54:05;;;;;;;0.93;0.20;;;;;;;18.26;78.13;96182.66;4358482;32;20236;-57
2022/07/02 07:56:33;;;;;;;0.10;0.10;;;;;;;18.25;78.25;96173.03;4312860;32;20228;-57
2022/07/02 07:59:01;;;;;;;0.30;0.30;;;;;;;18.34;78.21;96171.06;4315133;32;20243;-55
2022/07/02 08:01:28;;;;;;;0.00;0.00;;;;;;;18.40;78.02;96180.56;4310803;32;20203;-57
2022/07/02 08:03:57;;;;;;;0.00;0.00;;;;;;;18.46;77.54;96184.66;4361111;32;20212;-56
2022/07/02 08:06:22;;;;;;;0.10;0.10;;;;;;;18.60;73.06;96175.59;4365550;32;20196;-55
2022/07/02 08:08:49;;;;;;;0.20;0.20;;;;;;;18.54;71.89;96174.94;4341585;32;20244;-57
2022/07/02 08:11:16;;;;;;;0.30;0.30;;;;;;;18.49;72.13;96186.69;4313027;32;20214;-57
2022/07/02 08:13:43;;;;;;;0.20;0.20;;;;;;;18.35;72.82;96183.41;4342259;32;20228;-57
2022/07/02 08:16:08;;;;;;;0.20;0.20;;;;;;;18.33;72.86;96174.09;4368773;32;20192;-57
2022/07/02 08:18:34;;;;;;;0.13;0.13;;;;;;;18.35;72.18;96171.88;4367477;32;20214;-56
2022/07/02 08:21:01;;;;;;;0.30;0.30;;;;;;;18.43;72.09;96174.53;4346287;32;20244;-57
2022/07/02 08:23:28;;;;;;;0.00;0.00;;;;;;;18.44;71.29;96173.44;4352824;32;20208;-57
2022/07/02 08:25:56;;;;;;;0.20;0.20;;;;;;;18.21;73.11;96172.09;4354500;32;20184;-56
2022/07/02 08:28:22;;;;;;;0.23;0.23;;;;;;;18.27;72.92;96168.13;4310037;32;20223;-56
2022/07/02 08:30:47;;;;;;;0.00;0.00;;;;;;;18.21;73.88;96166.72;4322425;32;20185;-57
2022/07/02 08:33:15;;;;;;;0.00;0.00;;;;;;;18.46;72.98;96173.91;4342617;32;20196;-58
2022/07/02 08:35:43;;;;;;;0.20;0.20;;;;;;;18.54;72.65;96170.38;4348439;32;20209;-57
2022/07/02 08:38:16;;;;;;;0.10;0.10;;;;;;;18.58;73.40;96175.87;4343883;32;20193;-55
2022/07/02 08:40:46;;;;;;;2.13;0.57;;;;;;;18.66;73.11;96177.00;4344931;32;20209;-57
2022/07/02 08:43:14;;;;;;;0.10;0.10;;;;;;;18.71;72.93;96164.16;4346404;32;20215;-57
2022/07/02 08:45:45;;;;;;;0.40;0.27;;;;;;;18.82;69.85;96167.28;4317177;32;20378;-55
2022/07/02 08:48:16;;;;;;;0.03;0.03;;;;;;;18.80;69.53;96164.91;4329258;32;20271;-55
2022/07/02 08:50:41;;;;;;;0.17;0.17;;;;;;;18.78;69.55;96160.97;4308125;32;20207;-56
2022/07/02 08:53:08;;;;;;;0.17;0.17;;;;;;;18.68;70.13;96158.66;4340365;32;20193;-57
2022/07/02 08:55:38;;;;;;;5.40;2.07;;;;;;;18.65;70.47;96159.28;4337346;32;20196;-56
2022/07/02 08:58:05;;;;;;;0.40;0.40;;;;;;;18.65;70.57;96159.28;4335453;32;20201;-57
2022/07/02 09:00:35;;;;;;;0.20;0.20;;;;;;;18.64;70.80;96157.72;4353967;32;20211;-55
2022/07/02 09:03:02;;;;;;;0.47;0.47;;;;;;;18.73;69.93;96153.06;4339068;32;20193;-57
2022/07/02 09:05:29;;;;;;;0.20;0.20;;;;;;;18.79;69.90;96155.25;4367458;32;20196;-57
2022/07/02 09:07:57;;;;;;;0.10;0.10;;;;;;;18.68;70.68;96151.37;4321615;32;20216;-58
2022/07/02 09:10:32;;;;;;;0.77;0.40;;;;;;;18.76;70.74;96147.84;4341547;32;20280;-56
2022/07/02 09:12:59;;;;;;;0.10;0.10;;;;;;;18.83;70.87;96142.75;4357661;32;20189;-58
2022/07/02 09:15:26;;;;;;;0.30;0.30;;;;;;;18.93;71.17;96138.09;4353429;32;20216;-54
2022/07/02 09:17:54;;;;;;;0.10;0.10;;;;;;;19.05;70.29;96147.03;4331045;32;20188;-56
2022/07/02 09:20:23;;;;;;;0.40;0.40;;;;;;;19.11;69.18;96148.44;4327669;32;20194;-56
2022/07/02 09:22:52;;;;;;;0.00;0.00;;;;;;;19.05;69.41;96136.28;4358760;32;20318;-53
2022/07/02 09:25:30;;;;;;;0.00;0.00;;;;;;;19.05;69.42;96144.34;4320967;32;20209;-58
2022/07/02 09:28:05;;;;;;;0.10;0.10;;;;;;;19.13;69.43;96140.78;4337061;32;20226;-56
2022/07/02 09:30:33;;;;;;;0.10;0.10;;;;;;;19.29;68.26;96140.22;4350322;32;20200;-55
2022/07/02 09:35:52;;;;;;;0.10;0.10;;;;;;;19.36;68.45;96132.41;4327770;32;20240;-57
2022/07/02 09:38:23;;;;;;;0.10;0.10;;;;;;;19.39;68.47;96134.44;4320535;32;20275;-57
2022/07/02 09:40:56;;;;;;;0.10;0.10;;;;;;;19.50;68.36;96130.28;4336023;32;20216;-56
2022/07/02 09:43:31;;;;;;;0.10;0.10;;;;;;;19.44;68.09;96123.47;4338572;32;20316;-58
2022/07/02 09:46:00;;;;;;;0.27;0.27;;;;;;;19.62;66.57;96116.84;4324073;32;20219;-57
2022/07/02 09:48:27;;;;;;;8.03;0.70;;;;;;;19.66;67.33;96117.75;4309594;32;20207;-56
2022/07/02 09:50:54;;;;;;;0.10;0.10;;;;;;;19.78;65.97;96117.78;4295057;33;20193;-55
2022/07/02 09:53:20;;;;;;;0.47;0.47;;;;;;;19.88;64.94;96114.69;4310731;32;23246;-56
2022/07/02 09:55:50;;;;;;;0.10;0.10;;;;;;;19.94;64.45;96104.50;4343069;32;20228;-57
2022/07/02 09:58:28;;;;;;;0.03;0.03;;;;;;;20.02;64.22;96098.22;4347064;32;20268;-57
2022/07/02 10:01:01;;;;;;;0.17;0.17;;;;;;;20.21;63.35;96111.94;4328744;32;20212;-57
2022/07/02 10:03:28;;;;;;;0.30;0.30;;;;;;;20.27;61.74;96099.03;4342560;32;20192;-57
2022/07/02 10:05:56;;;;;;;0.30;0.30;;;;;;;20.35;61.44;96100.06;4343667;32;20208;-56
2022/07/02 10:08:24;;;;;;;0.40;0.40;;;;;;;20.42;60.71;96101.09;4327589;32;20257;-58
2022/07/02 10:10:54;;;;;;;0.03;0.03;;;;;;;20.48;59.75;96094.34;4348055;32;20335;-56
2022/07/02 10:13:20;;;;;;;0.20;0.20;;;;;;;20.40;61.78;96097.94;4344297;32;23345;-57
2022/07/02 10:15:59;;;;;;;0.10;0.10;;;;;;;20.55;60.61;96091.09;4319489;32;20189;-57
2022/07/02 10:18:27;;;;;;;0.20;0.20;;;;;;;20.61;59.66;96091.66;4342497;32;20192;-57
2022/07/02 10:20:57;;;;;;;0.10;0.10;;;;;;;20.63;58.33;96090.19;4303228;33;20208;-59
2022/07/02 10:23:24;;;;;;;0.00;0.00;;;;;;;20.74;58.66;96083.22;4342841;32;20423;-56
2022/07/02 10:25:58;;;;;;;0.33;0.33;;;;;;;20.78;57.58;96083.34;4326600;32;20193;-57
2022/07/02 10:28:25;;;;;;;0.20;0.20;;;;;;;20.90;58.33;96084.09;4316149;32;20328;-57
2022/07/02 10:30:59;;;;;;;0.40;0.40;;;;;;;20.99;56.98;96097.44;4314527;32;20235;-57
2022/07/02 10:34:02;;;;;;;0.13;0.13;;;;;;;21.00;56.43;96088.22;4322961;32;20203;-57
2022/07/02 10:36:32;;;;;;;0.10;0.10;;;;;;;20.89;57.52;96082.50;4343427;32;20204;-57
2022/07/02 10:39:00;;;;;;;0.10;0.10;;;;;;;21.03;56.77;96087.53;4324388;32;20193;-58
2022/07/02 10:41:32;;;;;;;0.10;0.10;;;;;;;21.07;56.54;96088.44;4349798;32;20189;-57
2022/07/02 10:44:00;;;;;;;0.30;0.30;;;;;;;21.19;54.71;96072.22;4349262;32;20181;-57
2022/07/02 10:46:28;;;;;;;0.40;0.40;;;;;;;21.22;52.66;96074.22;4328537;32;20210;-57
2022/07/02 10:48:56;;;;;;;0.23;0.23;;;;;;;21.15;54.80;96070.53;4330586;32;20193;-56
2022/07/02 10:51:38;;;;;;;0.13;0.13;;;;;;;21.14;54.84;96077.06;4343287;32;20204;-56
2022/07/02 10:54:09;;;;;;;1.70;0.20;;;;;;;21.10;55.51;96081.56;4334870;32;20247;-57
2022/07/02 10:56:57;;;;;;;0.43;0.43;;;;;;;21.20;56.37;96075.69;4343923;32;20193;-57
2022/07/02 10:59:45;;;;;;;0.33;0.33;;;;;;;21.22;57.22;96068.84;4319569;32;20291;-55
2022/07/02 11:02:17;;;;;;;0.00;0.00;;;;;;;21.40;54.68;96073.97;4339162;32;20193;-55
2022/07/02 11:04:43;;;;;;;0.30;0.30;;;;;;;21.46;53.75;96067.97;4347356;32;20244;-58
2022/07/02 11:07:12;;;;;;;0.27;0.27;;;;;;;21.56;54.36;96066.69;4343323;32;20201;-57
2022/07/02 11:10:07;;;;;;;0.10;0.10;;;;;;;21.52;54.59;96052.31;4339433;32;20193;-58
2022/07/02 11:13:02;;;;;;;0.03;0.03;;;;;;;21.36;53.53;96051.47;4362658;32;20222;-59
2022/07/02 11:15:34;;;;;;;0.20;0.20;;;;;;;21.47;52.93;96053.31;4344821;32;20196;-57
2022/07/02 11:18:04;;;;;;;0.30;0.30;;;;;;;21.59;53.12;96036.31;4353609;32;20197;-62
2022/07/02 11:20:50;;;;;;;0.00;0.00;;;;;;;21.66;51.77;96030.28;4352831;32;20204;-58
2022/07/02 11:23:17;;;;;;;0.83;0.57;;;;;;;21.69;53.00;96024.97;4333352;32;20190;-57
2022/07/02 11:25:45;;;;;;;0.30;0.30;;;;;;;21.73;51.68;96019.66;4335113;32;20204;-58
2022/07/02 11:28:14;;;;;;;0.40;0.40;;;;;;;21.81;52.58;96007.91;4342717;32;20204;-57
2022/07/02 11:30:40;;;;;;;0.00;0.00;;;;;;;21.77;52.73;96007.81;4347909;32;20235;-57
2022/07/02 11:33:15;;;;;;;0.20;0.20;;;;;;;21.72;54.55;96004.59;4341747;32;20244;-57
2022/07/02 11:35:43;;;;;;;0.00;0.00;;;;;;;21.92;50.29;96003.53;4328609;32;20193;-57
2022/07/02 11:38:15;;;;;;;0.10;0.10;;;;;;;21.97;49.78;95991.69;4351412;32;20248;-57
2022/07/02 11:40:42;;;;;;;0.10;0.10;;;;;;;21.87;50.55;95990.28;4336053;32;20201;-55
2022/07/02 11:43:14;;;;;;;3.63;3.10;;;;;;;21.97;49.69;95997.09;4337493;32;20215;-59
2022/07/02 11:45:48;;;;;;;0.30;0.30;;;;;;;21.88;49.76;95995.34;4323417;32;20197;-58
2022/07/02 11:48:26;;;;;;;0.10;0.10;;;;;;;21.92;51.13;95988.12;4310683;32;20202;-56
2022/07/02 11:51:00;;;;;;;0.00;0.00;;;;;;;21.94;49.04;95990.47;4352997;32;20189;-58